LJLJ/LJU METAR and TAF weather

Enter ICAO airport designator
Station Type Date Time Source
LJLJ METAR 2019/06/27 10:30 UTC NOAA

LJLJ 271030Z 08004KT 040V130 9999 FEW065 31/22 Q1020 NOSIG


Station Type Date Time Source
LJLJ Decoded METAR 2019/06/27 10:30 UTC NOAA

Ljubljana / Brnik, Slovenia (LJLJ) 46-13N 014-29E 362M
Jun 27, 2019 - 06:30 AM EDT / 2019.06.27 1030 UTC
Wind: from the E (080 degrees) at 5 MPH (4 KT) (direction variable):0
Visibility: greater than 7 mile(s):0
Sky conditions: mostly clear
Temperature: 87 F (31 C)
Heat index: 92.3 F (33.5 C):1
Dew Point: 71 F (22 C)
Relative Humidity: 58%
Pressure (altimeter): 30.12 in. Hg (1020 hPa)
ob: LJLJ 271030Z 08004KT 040V130 9999 FEW065 31/22 Q1020 NOSIG
cycle: 10

Station Type Date Time Source
LJLJ TAF 2019/06/27 09:06 UTC NOAA

TAF LJLJ 270800Z 2709/2809 VRB02KT CAVOK
BECMG 2709/2710 12005KT FEW050 PROB30
TEMPO 2714/2722 VRB15G35KT 6000 TSRA BKN050CB
BECMG 2718/2721 VRB02KT
BECMG 2808/2809 12005KT

Example: see airport list